Time;durP1;ratioP1;P1;durP2;ratioP2;P2;SDS_P1;SDS_P2;PMS_P1;PMS_P2;Temp;Humidity;BMP_temperature;BMP_pressure;BME280_temperature;BME280_humidity;BME280_pressure;Samples;Min_cycle;Max_cycle;Signal;HPM_P1;HPM_P2
2022/04/10 04:16:02;;;;;;;13.73;8.05;;;;;;;1.08;75.28;99224.97;2617867;46;20034;-63
2022/04/10 04:18:32;;;;;;;12.02;8.57;;;;;;;1.18;75.38;99231.09;2618307;39;20430;-61
2022/04/10 04:21:01;;;;;;;12.05;8.10;;;;;;;1.29;75.36;99245.03;2618343;51;20070;-61
2022/04/10 04:23:39;;;;;;;12.90;8.70;;;;;;;1.44;75.10;99243.81;2618505;39;20528;-61
2022/04/10 04:26:10;;;;;;;11.55;7.45;;;;;;;1.55;74.58;99241.16;2618255;47;20574;-61
2022/04/10 04:28:41;;;;;;;13.45;8.55;;;;;;;1.62;74.46;99244.09;2617777;47;20144;-61
2022/04/10 04:31:14;;;;;;;11.85;8.38;;;;;;;1.68;74.22;99241.81;2618185;39;20407;-61
2022/04/10 04:33:44;;;;;;;14.32;8.02;;;;;;;1.75;74.62;99244.72;2618019;47;20034;-61
2022/04/10 04:36:16;;;;;;;11.18;8.20;;;;;;;1.80;74.28;99245.19;2618178;47;20038;-62
2022/04/10 04:38:46;;;;;;;11.75;8.63;;;;;;;1.84;74.04;99253.59;2617718;54;20117;-62
2022/04/10 04:41:16;;;;;;;11.15;8.27;;;;;;;1.85;74.20;99256.06;2617783;54;20547;-64
2022/04/10 04:43:45;;;;;;;13.45;8.63;;;;;;;1.95;73.97;99253.53;2619276;54;20046;-62
2022/04/10 04:46:18;;;;;;;11.07;8.25;;;;;;;1.95;74.10;99256.94;2622369;52;20118;-62
2022/04/10 04:48:47;;;;;;;11.85;8.50;;;;;;;1.99;74.07;99266.19;2622642;47;20027;-62
2022/04/10 04:51:18;;;;;;;14.13;8.30;;;;;;;2.07;73.76;99268.16;2623174;47;20051;-62
2022/04/10 04:53:49;;;;;;;13.63;9.05;;;;;;;2.13;73.76;99265.06;2623420;39;20475;-62
2022/04/10 04:56:19;;;;;;;10.40;7.63;;;;;;;1.90;73.23;99268.72;2623632;54;20074;-62
2022/04/10 04:58:50;;;;;;;13.38;8.52;;;;;;;1.96;74.00;99276.88;2623171;54;20034;-62
2022/04/10 05:01:22;;;;;;;11.45;8.13;;;;;;;2.05;73.82;99277.06;2621018;54;20077;-62
2022/04/10 05:03:52;;;;;;;12.60;8.68;;;;;;;2.14;73.64;99274.53;2620914;47;20041;-62
2022/04/10 05:06:25;;;;;;;12.23;8.27;;;;;;;2.21;73.63;99277.47;2620091;54;20643;-62
2022/04/10 05:08:55;;;;;;;12.27;8.20;;;;;;;2.22;73.50;99279.09;2618750;39;20446;-62
2022/04/10 05:11:24;;;;;;;12.23;9.07;;;;;;;2.25;73.51;99273.66;2619543;54;20027;-63
2022/04/10 05:13:54;;;;;;;13.48;9.63;;;;;;;2.33;73.45;99278.22;2621608;47;20031;-62
2022/04/10 05:16:27;;;;;;;14.52;9.60;;;;;;;2.38;74.00;99278.66;2621723;47;20538;-62
2022/04/10 05:18:58;;;;;;;;;;;;;;;2.42;73.49;99287.88;2621039;52;20027;-62
2022/04/10 05:21:29;;;;;;;13.93;9.63;;;;;;;2.47;73.64;99290.94;2621674;47;19942;-62
2022/04/10 05:23:59;;;;;;;12.18;8.88;;;;;;;2.50;73.34;99297.69;2621369;54;20030;-64
2022/04/10 05:26:30;;;;;;;12.75;10.18;;;;;;;2.53;73.57;99289.56;2621736;54;20037;-63
2022/04/10 05:29:02;;;;;;;14.07;9.82;;;;;;;2.58;73.34;99298.69;2620655;47;20038;-63
2022/04/10 05:31:35;;;;;;;12.63;9.43;;;;;;;2.61;73.75;99300.19;2621696;54;20026;-64
2022/04/10 05:34:05;;;;;;;13.25;9.32;;;;;;;2.64;73.90;99298.16;2621778;47;20090;-62
2022/04/10 05:36:35;;;;;;;11.75;8.40;;;;;;;2.57;73.39;99304.00;2622925;39;20419;-63
2022/04/10 05:39:05;;;;;;;13.18;8.82;;;;;;;2.63;73.66;99306.13;2621443;54;20645;-62
2022/04/10 05:41:35;;;;;;;16.60;9.52;;;;;;;2.61;73.50;99305.41;2621928;54;20565;-62
2022/04/10 05:44:11;;;;;;;13.50;9.05;;;;;;;2.63;73.55;99308.72;2621422;54;20055;-64
2022/04/10 05:46:44;;;;;;;15.43;10.18;;;;;;;2.72;73.69;99315.78;2619859;54;20110;-64
2022/04/10 05:49:20;;;;;;;17.80;10.13;;;;;;;2.84;73.35;99316.53;2618379;47;20027;-64
2022/04/10 05:51:51;;;;;;;16.27;10.57;;;;;;;2.85;72.80;99319.00;2617840;54;20158;-63
2022/04/10 05:54:22;;;;;;;15.98;9.48;;;;;;;2.89;72.76;99327.41;2618242;47;20034;-62
2022/04/10 05:56:55;;;;;;;15.90;9.90;;;;;;;2.91;72.76;99325.50;2617538;47;20035;-62
2022/04/10 05:59:25;;;;;;;16.55;9.68;;;;;;;2.93;73.06;99327.00;2619060;47;20074;-63
2022/04/10 06:01:59;;;;;;;13.45;10.52;;;;;;;3.02;73.24;99327.16;2618862;39;20426;-63
2022/04/10 06:04:29;;;;;;;19.60;10.95;;;;;;;3.09;73.18;99325.69;2617944;47;20041;-63
2022/04/10 06:06:58;;;;;;;16.17;10.18;;;;;;;3.14;72.94;99320.88;2617261;54;20031;-63
2022/04/10 06:09:34;;;;;;;15.32;10.98;;;;;;;3.17;73.34;99310.19;2618685;31;20519;-62
2022/04/10 06:12:04;;;;;;;14.25;10.32;;;;;;;3.15;72.81;99319.97;2618307;54;20023;-63
2022/04/10 06:14:41;;;;;;;15.30;11.05;;;;;;;3.05;72.79;99321.69;2619974;46;20041;-63
2022/04/10 06:17:16;;;;;;;14.88;10.82;;;;;;;2.83;72.78;99330.53;2620163;54;20146;-63
2022/04/10 06:19:47;;;;;;;16.58;10.70;;;;;;;2.78;73.12;99330.13;2618906;54;20039;-63
2022/04/10 06:22:19;;;;;;;14.65;11.27;;;;;;;2.80;73.71;99326.41;2617774;54;20026;-62
2022/04/10 06:24:49;;;;;;;13.75;10.60;;;;;;;2.85;73.68;99337.28;2617954;54;20042;-62
2022/04/10 06:27:19;;;;;;;17.77;10.30;;;;;;;2.84;73.06;99343.47;2617367;54;20023;-63
2022/04/10 06:29:49;;;;;;;17.77;10.82;;;;;;;2.80;72.86;99333.41;2617677;54;20027;-63
2022/04/10 06:32:24;;;;;;;16.38;10.05;;;;;;;2.74;72.97;99345.22;2617791;51;20135;-62
2022/04/10 06:34:56;;;;;;;16.60;9.95;;;;;;;2.78;73.43;99349.22;2617394;47;20070;-62
2022/04/10 06:37:26;;;;;;;13.55;9.57;;;;;;;2.88;73.53;99342.25;2617670;54;20045;-62
2022/04/10 06:39:56;;;;;;;17.70;9.85;;;;;;;3.01;73.63;99347.25;2617706;47;20037;-64
2022/04/10 06:42:25;;;;;;;18.67;11.40;;;;;;;3.10;72.87;99350.84;2617681;47;20023;-63
2022/04/10 06:45:14;;;;;;;22.20;14.07;;;;;;;3.05;72.64;99347.81;2618138;54;20045;-63
2022/04/10 06:48:07;;;;;;;21.00;13.20;;;;;;;3.03;72.60;99345.34;2617618;54;20031;-64
2022/04/10 06:50:44;;;;;;;21.73;13.13;;;;;;;2.98;72.17;99350.13;2617571;47;20031;-64
2022/04/10 06:53:20;;;;;;;18.40;12.43;;;;;;;2.95;72.64;99346.00;2618223;47;20034;-62
2022/04/10 06:55:50;;;;;;;20.17;12.82;;;;;;;2.92;72.36;99348.84;2618277;39;20404;-65
2022/04/10 06:58:22;;;;;;;20.80;12.40;;;;;;;2.98;73.27;99350.97;2617227;47;20085;-63
2022/04/10 07:00:55;;;;;;;16.80;12.13;;;;;;;3.05;72.81;99347.81;2618307;54;20153;-63
2022/04/10 07:03:28;;;;;;;16.67;11.02;;;;;;;3.14;73.31;99353.09;2617877;51;20039;-63
2022/04/10 07:06:00;;;;;;;14.13;11.13;;;;;;;3.40;73.00;99356.06;2617909;54;20071;-63
2022/04/10 07:08:37;;;;;;;17.05;10.70;;;;;;;3.58;72.63;99358.03;2617577;47;20569;-63
2022/04/10 07:11:07;;;;;;;14.73;11.00;;;;;;;3.66;72.41;99358.19;2617778;47;20547;-63
2022/04/10 07:13:37;;;;;;;14.10;10.82;;;;;;;3.84;72.17;99372.25;2618524;39;20454;-63
2022/04/10 07:16:08;;;;;;;16.25;11.15;;;;;;;4.06;71.96;99371.16;2617435;51;20029;-63
2022/04/10 07:18:40;;;;;;;13.93;10.88;;;;;;;4.21;72.18;99361.94;2617531;54;20054;-63
2022/04/10 07:21:15;;;;;;;19.58;16.17;;;;;;;4.44;72.20;99369.50;2618348;51;20030;-63
2022/04/10 07:23:44;;;;;;;14.75;10.48;;;;;;;4.56;71.84;99363.13;2618515;46;20039;-63
2022/04/10 07:26:20;;;;;;;12.23;9.48;;;;;;;4.61;71.56;99373.19;2618090;54;20135;-63
2022/04/10 07:28:55;;;;;;;12.60;9.90;;;;;;;4.58;71.71;99376.09;2617832;47;20038;-62
2022/04/10 07:31:28;;;;;;;13.50;10.05;;;;;;;4.50;71.50;99371.56;2618529;54;20034;-63
2022/04/10 07:34:00;;;;;;;15.23;10.20;;;;;;;4.64;71.69;99376.34;2618163;47;20094;-63
2022/04/10 07:36:49;;;;;;;14.43;10.35;;;;;;;4.84;71.35;99371.91;2619111;54;20054;-64
2022/04/10 07:39:19;;;;;;;12.18;10.68;;;;;;;5.01;70.86;99372.13;2618322;54;20035;-63
2022/04/10 07:41:56;;;;;;;13.50;10.30;;;;;;;5.09;70.83;99370.44;2618456;39;20424;-64
2022/04/10 07:44:31;;;;;;;14.05;10.07;;;;;;;5.16;70.52;99373.31;2618576;39;20427;-62
2022/04/10 07:49:47;;;;;;;12.43;10.13;;;;;;;5.37;70.29;99386.22;2619664;47;20642;-64
2022/04/10 07:52:17;;;;;;;14.60;11.82;;;;;;;5.51;69.40;99392.75;2618287;54;20018;-64
2022/04/10 07:55:08;;;;;;;12.65;9.55;;;;;;;5.60;69.75;99381.41;2618882;39;20491;-63
2022/04/10 07:57:45;;;;;;;13.18;11.02;;;;;;;5.77;69.70;99388.47;2617985;54;20023;-64
2022/04/10 08:00:17;;;;;;;13.82;9.40;;;;;;;5.89;69.38;99389.09;2618704;39;20430;-63
2022/04/10 08:02:54;;;;;;;13.65;9.82;;;;;;;6.00;69.14;99393.31;2618059;54;20159;-64
2022/04/10 08:05:38;;;;;;;12.85;9.63;;;;;;;6.07;69.03;99389.13;2618404;47;20030;-63
2022/04/10 08:08:17;;;;;;;10.40;9.32;;;;;;;6.12;68.97;99389.50;2618241;54;20027;-64
2022/04/10 08:10:47;;;;;;;12.23;9.38;;;;;;;6.14;68.21;99392.81;2619114;54;20054;-64
2022/04/10 08:13:16;;;;;;;12.32;10.02;;;;;;;6.23;68.11;99394.53;2618929;54;20163;-64
2022/04/10 08:15:47;;;;;;;14.27;10.65;;;;;;;6.33;68.02;99397.94;2619012;54;20034;-65
2022/04/10 08:18:17;;;;;;;13.52;10.35;;;;;;;6.31;67.75;99399.88;2618681;54;20042;-64
2022/04/10 08:20:49;;;;;;;13.75;10.10;;;;;;;6.36;67.98;99408.13;2618797;54;20038;-65
2022/04/10 08:23:20;;;;;;;13.27;10.00;;;;;;;6.47;67.64;99414.13;2618420;54;20027;-64
2022/04/10 08:25:49;;;;;;;13.65;9.32;;;;;;;6.55;67.74;99409.75;2618565;54;20287;-65
2022/04/10 08:28:19;;;;;;;17.45;10.30;;;;;;;6.50;67.14;99419.91;2617805;47;20570;-64
2022/04/10 08:30:49;;;;;;;13.45;9.75;;;;;;;6.42;66.78;99415.41;2619018;54;20046;-63
2022/04/10 08:33:19;;;;;;;12.85;9.25;;;;;;;6.41;67.32;99419.00;2618965;54;20133;-62
2022/04/10 08:35:51;;;;;;;12.32;9.27;;;;;;;6.54;67.32;99416.00;2619016;54;20027;-63
2022/04/10 08:38:21;;;;;;;12.98;9.32;;;;;;;6.63;67.27;99424.78;2618720;54;20038;-62
2022/04/10 08:40:51;;;;;;;11.70;9.48;;;;;;;6.57;66.89;99422.72;2618940;39;20695;-63
2022/04/10 08:43:22;;;;;;;13.13;10.70;;;;;;;6.57;66.77;99423.59;2618870;54;20038;-61
2022/04/10 08:45:52;;;;;;;12.68;9.63;;;;;;;6.51;66.51;99425.97;2618886;54;20597;-63
2022/04/10 08:48:25;;;;;;;13.00;9.60;;;;;;;6.49;66.82;99431.41;2617890;54;20053;-63
2022/04/10 08:50:57;;;;;;;12.35;9.63;;;;;;;6.49;66.51;99436.66;2621483;54;20030;-63
2022/04/10 08:53:29;;;;;;;15.52;10.23;;;;;;;6.48;66.57;99431.53;2624147;39;20408;-63
2022/04/10 08:55:58;;;;;;;12.68;10.40;;;;;;;6.50;66.47;99427.78;2623024;54;20037;-63
2022/04/10 08:58:28;;;;;;;12.93;9.18;;;;;;;6.60;66.86;99431.13;2622434;54;20035;-63
2022/04/10 09:00:58;;;;;;;11.77;9.70;;;;;;;6.74;66.31;99431.59;2621699;54;20050;-64
2022/04/10 09:03:28;;;;;;;17.02;11.00;;;;;;;6.78;65.93;99438.19;2619990;54;20035;-63
2022/04/10 09:06:09;;;;;;;18.30;11.25;;;;;;;6.85;65.80;99441.84;2618457;47;20038;-64
2022/04/10 09:08:39;;;;;;;16.90;10.90;;;;;;;6.91;65.51;99444.69;2618633;54;20524;-63
2022/04/10 09:11:10;;;;;;;12.85;10.77;;;;;;;7.03;65.39;99434.75;2619020;54;20050;-64
2022/04/10 09:13:41;;;;;;;18.52;12.80;;;;;;;7.19;64.92;99436.66;2618865;54;20038;-64
2022/04/10 09:16:14;;;;;;;16.60;10.80;;;;;;;7.29;65.41;99433.91;2618268;46;20535;-64
2022/04/10 09:18:51;;;;;;;15.83;11.60;;;;;;;7.43;64.89;99439.44;2618330;54;20154;-63
2022/04/10 09:21:29;;;;;;;13.07;10.95;;;;;;;7.52;64.60;99444.75;2618872;54;20127;-64
2022/04/10 09:24:02;;;;;;;14.48;11.93;;;;;;;7.64;64.58;99443.47;2618963;54;20042;-64
2022/04/10 09:26:46;;;;;;;14.43;10.90;;;;;;;7.69;63.73;99439.38;2619265;54;20033;-64
2022/04/10 09:29:17;;;;;;;18.42;13.02;;;;;;;7.64;63.95;99441.66;2620240;54;20038;-65
2022/04/10 09:31:47;;;;;;;14.70;11.75;;;;;;;7.86;64.34;99448.16;2620401;54;20034;-64
2022/04/10 09:34:18;;;;;;;17.38;12.10;;;;;;;7.87;63.27;99447.16;2621589;54;20082;-64
2022/04/10 09:37:17;;;;;;;17.42;13.20;;;;;;;7.67;64.27;99443.13;2621605;39;20405;-66
2022/04/10 09:39:53;;;;;;;17.48;14.02;;;;;;;7.52;64.04;99440.28;2621793;39;20448;-64
2022/04/10 09:42:32;;;;;;;17.55;13.48;;;;;;;7.52;64.10;99434.22;2621592;54;20602;-64
2022/04/10 09:45:32;;;;;;;16.27;11.68;;;;;;;7.58;64.52;99426.50;2622089;54;20038;-64
2022/04/10 09:48:20;;;;;;;13.85;10.85;;;;;;;7.68;64.41;99434.28;2621995;54;20035;-64
2022/04/10 09:50:52;;;;;;;12.57;10.45;;;;;;;7.75;63.87;99437.91;2623500;54;20598;-66
2022/04/10 09:53:26;;;;;;;13.43;9.93;;;;;;;7.95;63.17;99436.66;2622673;54;20034;-66
2022/04/10 09:55:57;;;;;;;14.38;10.93;;;;;;;8.22;62.97;99434.75;2622512;54;20110;-64
2022/04/10 09:58:28;;;;;;;21.15;11.07;;;;;;;8.31;62.84;99431.16;2622657;54;20159;-63
2022/04/10 10:00:59;;;;;;;16.00;9.95;;;;;;;8.33;61.67;99429.19;2622333;54;20554;-63
2022/04/10 10:03:40;;;;;;;15.57;9.90;;;;;;;8.42;62.36;99432.69;2621890;54;20034;-62
2022/04/10 10:06:12;;;;;;;14.43;9.00;;;;;;;8.44;61.84;99436.78;2621760;54;20039;-63
2022/04/10 10:08:45;;;;;;;10.35;6.95;;;;;;;8.27;60.91;99426.38;2621123;54;20042;-64
2022/04/10 10:11:15;;;;;;;13.65;6.53;;;;;;;8.12;60.14;99426.16;2621050;54;20026;-64
2022/04/10 10:13:45;;;;;;;16.20;8.00;;;;;;;8.22;61.18;99418.97;2620737;54;20027;-63
2022/04/10 10:16:16;;;;;;;15.60;8.88;;;;;;;8.28;61.33;99418.28;2620890;54;20029;-62
2022/04/10 10:18:47;;;;;;;13.95;7.53;;;;;;;8.30;60.83;99418.16;2620496;54;20038;-64
2022/04/10 10:21:17;;;;;;;12.65;7.53;;;;;;;8.13;60.91;99419.94;2621012;54;20039;-64
2022/04/10 10:23:54;;;;;;;10.35;6.32;;;;;;;8.22;60.60;99407.59;2621081;54;20030;-64
2022/04/10 10:26:46;;;;;;;11.32;6.68;;;;;;;8.43;60.34;99411.44;2621140;54;20061;-64
2022/04/10 10:29:40;;;;;;;11.50;5.50;;;;;;;8.52;59.49;99403.53;2620316;54;20040;-63
2022/04/10 10:32:16;;;;;;;7.45;4.63;;;;;;;8.51;59.24;99402.72;2620160;54;20041;-65
2022/04/10 10:34:46;;;;;;;10.27;5.88;;;;;;;8.53;58.89;99394.63;2620109;54;20446;-65
2022/04/10 10:37:17;;;;;;;15.50;5.70;;;;;;;8.70;58.89;99391.03;2620798;54;20034;-64
2022/04/10 10:39:52;;;;;;;13.07;5.47;;;;;;;8.93;58.87;99391.13;2620390;54;20042;-64
2022/04/10 10:42:24;;;;;;;8.70;4.35;;;;;;;9.01;56.81;99383.22;2618353;54;20026;-64
2022/04/10 10:44:54;;;;;;;8.05;5.10;;;;;;;9.23;56.37;99384.31;2618172;54;20023;-63
2022/04/10 10:47:26;;;;;;;10.95;4.78;;;;;;;9.18;55.04;99386.63;2617894;54;20061;-63
2022/04/10 10:49:57;;;;;;;7.60;4.55;;;;;;;9.02;54.67;99378.75;2618316;54;20033;-63
2022/04/10 10:52:30;;;;;;;8.95;4.28;;;;;;;9.00;53.62;99372.84;2617796;54;20039;-63
2022/04/10 10:55:03;;;;;;;9.15;4.70;;;;;;;9.12;53.88;99368.84;2618067;54;20036;-65
2022/04/10 10:57:42;;;;;;;11.80;5.22;;;;;;;9.32;54.33;99367.47;2617848;54;20054;-63
2022/04/10 11:00:13;;;;;;;;;;;;;;;9.67;54.03;99367.97;2618376;39;20144;-65
2022/04/10 11:02:48;;;;;;;12.50;5.03;;;;;;;10.05;53.41;99366.28;2618252;54;19946;-63
2022/04/10 11:05:35;;;;;;;9.93;5.07;;;;;;;10.21;52.66;99357.41;2617598;46;20109;-63
2022/04/10 11:08:08;;;;;;;11.10;4.82;;;;;;;10.46;51.99;99359.91;2617992;54;20038;-64
2022/04/10 11:10:42;;;;;;;8.98;4.32;;;;;;;10.46;50.65;99354.59;2618165;54;20045;-65
2022/04/10 11:13:12;;;;;;;;;;;;;;;10.66;51.23;99351.28;2618367;54;20042;-63
2022/04/10 11:15:51;;;;;;;7.15;3.38;;;;;;;11.04;50.40;99340.63;2618044;54;20025;-64
2022/04/10 11:18:36;;;;;;;7.85;4.15;;;;;;;11.14;49.43;99345.66;2617773;54;20147;-64
2022/04/10 11:21:15;;;;;;;9.93;4.05;;;;;;;10.85;48.23;99341.16;2617998;39;20419;-66
2022/04/10 11:23:55;;;;;;;10.52;5.30;;;;;;;10.48;48.07;99350.78;2618197;54;20057;-64
2022/04/10 11:26:36;;;;;;;9.18;4.43;;;;;;;10.30;48.50;99343.16;2618775;39;20419;-64
2022/04/10 11:29:08;;;;;;;5.97;3.63;;;;;;;9.85;48.39;99339.50;2618473;39;20429;-65
2022/04/10 11:31:41;;;;;;;9.80;4.43;;;;;;;9.59;49.38;99341.59;2617926;54;20045;-63
2022/04/10 11:34:15;;;;;;;9.23;3.63;;;;;;;9.33;50.15;99358.56;2617957;54;20026;-65
2022/04/10 11:36:53;;;;;;;10.18;4.28;;;;;;;9.12;51.47;99356.47;2618116;54;20038;-64
2022/04/10 11:39:28;;;;;;;6.32;3.20;;;;;;;9.01;51.21;99367.38;2618136;54;20031;-66
2022/04/10 11:42:04;;;;;;;5.90;3.80;;;;;;;8.84;53.23;99371.06;2618144;54;20033;-65
2022/04/10 11:44:35;;;;;;;8.27;3.90;;;;;;;8.81;54.33;99372.19;2618624;39;20503;-65
2022/04/10 11:47:08;;;;;;;8.60;3.92;;;;;;;8.76;54.34;99373.69;2617715;54;20110;-66
2022/04/10 11:49:39;;;;;;;8.13;3.47;;;;;;;8.67;54.18;99365.00;2617991;54;20035;-66
2022/04/10 11:52:10;;;;;;;7.03;3.00;;;;;;;8.66;54.43;99377.34;2617901;54;20046;-66
2022/04/10 11:54:40;;;;;;;7.10;3.60;;;;;;;8.81;54.50;99374.03;2617909;54;20026;-65
2022/04/10 11:57:12;;;;;;;7.82;3.53;;;;;;;9.00;53.99;99376.28;2617340;39;20213;-66
2022/04/10 11:59:44;;;;;;;6.60;2.22;;;;;;;9.11;53.81;99381.22;2618634;39;20439;-65
2022/04/10 12:02:14;;;;;;;12.40;3.42;;;;;;;9.05;52.55;99375.78;2618043;54;20031;-65
2022/04/10 12:04:49;;;;;;;4.97;2.60;;;;;;;9.16;52.81;99368.34;2618446;54;20443;-65
2022/04/10 12:07:20;;;;;;;10.85;6.32;;;;;;;9.36;51.94;99363.50;2618028;47;20038;-66
2022/04/10 12:09:52;;;;;;;5.93;2.53;;;;;;;9.51;51.62;99358.34;2618959;54;20130;-64
2022/04/10 12:12:38;;;;;;;5.95;2.47;;;;;;;9.55;51.57;99357.00;2618161;47;20023;-63
2022/04/10 12:15:19;;;;;;;6.20;3.22;;;;;;;9.63;51.53;99364.03;2619016;39;20461;-65
2022/04/10 12:17:50;;;;;;;4.65;2.67;;;;;;;9.68;51.85;99362.53;2618423;54;20039;-65
2022/04/10 12:20:37;;;;;;;5.18;3.08;;;;;;;9.80;51.08;99355.03;2618658;54;20043;-66
2022/04/10 12:23:24;;;;;;;3.63;2.03;;;;;;;10.08;50.56;99354.50;2619848;31;20496;-65
2022/04/10 12:25:56;;;;;;;3.97;2.20;;;;;;;10.20;50.25;99360.22;2618706;54;20082;-64
2022/04/10 12:28:31;;;;;;;3.22;1.90;;;;;;;10.20;49.70;99353.09;2619020;54;20046;-65
2022/04/10 12:31:02;;;;;;;3.70;2.40;;;;;;;10.25;49.21;99344.72;2619293;39;20442;-65
2022/04/10 12:33:33;;;;;;;4.35;3.17;;;;;;;10.24;49.27;99351.75;2618905;54;20041;-66
2022/04/10 12:36:17;;;;;;;3.47;2.10;;;;;;;10.39;47.85;99346.56;2620421;39;20435;-66
2022/04/10 12:38:48;;;;;;;2.97;1.98;;;;;;;10.30;48.36;99348.44;2618814;54;20026;-64
2022/04/10 12:41:27;;;;;;;3.10;2.38;;;;;;;10.65;47.54;99351.44;2618072;47;20058;-65
2022/04/10 12:44:07;;;;;;;4.90;2.20;;;;;;;10.67;46.90;99338.88;2618719;54;20030;-66
2022/04/10 12:46:38;;;;;;;5.47;2.47;;;;;;;10.77;45.91;99335.97;2618824;54;20039;-63
2022/04/10 12:49:13;;;;;;;7.65;2.00;;;;;;;10.71;46.30;99339.34;2618612;54;20034;-64
2022/04/10 12:51:50;;;;;;;3.10;2.03;;;;;;;10.66;45.77;99339.88;2618127;47;20036;-67
2022/04/10 12:54:19;;;;;;;4.53;1.98;;;;;;;10.68;45.65;99334.41;2618868;54;20058;-65
2022/04/10 12:56:55;;;;;;;4.95;2.75;;;;;;;10.75;44.89;99341.44;2618790;54;20031;-66
2022/04/10 12:59:35;;;;;;;5.32;2.53;;;;;;;10.78;44.02;99321.75;2619042;54;20038;-64
2022/04/10 13:02:10;;;;;;;4.55;1.85;;;;;;;10.51;42.90;99308.13;2619351;54;20031;-68
2022/04/10 13:04:40;;;;;;;5.03;2.30;;;;;;;10.66;43.37;99310.81;2619065;54;20026;-67
2022/04/10 13:07:19;;;;;;;3.72;2.00;;;;;;;10.75;43.08;99317.66;2619753;39;20440;-64
2022/04/10 13:09:52;;;;;;;3.95;2.10;;;;;;;10.66;43.17;99311.63;2618959;54;20034;-65
2022/04/10 13:12:25;;;;;;;4.88;1.90;;;;;;;10.46;42.50;99314.97;2619050;54;20108;-64
2022/04/10 13:14:58;;;;;;;2.92;1.83;;;;;;;10.35;43.35;99316.19;2618879;54;20061;-64
2022/04/10 13:17:33;;;;;;;4.68;1.80;;;;;;;10.36;43.00;99320.47;2617687;47;20023;-65
2022/04/10 13:20:09;;;;;;;2.58;1.65;;;;;;;10.24;42.33;99325.34;2618532;54;20042;-65
2022/04/10 13:22:40;;;;;;;5.63;2.03;;;;;;;10.22;42.74;99321.25;2618281;54;20075;-65
2022/04/10 13:25:12;;;;;;;2.63;1.83;;;;;;;10.19;42.98;99319.75;2617694;47;20030;-65
2022/04/10 13:27:42;;;;;;;6.15;3.50;;;;;;;10.44;42.78;99314.31;2617875;54;20027;-64
2022/04/10 13:30:15;;;;;;;5.28;3.75;;;;;;;10.81;42.62;99311.63;2619102;54;20033;-65
2022/04/10 13:32:45;;;;;;;6.50;2.97;;;;;;;10.98;41.78;99308.78;2619110;54;20038;-64
2022/04/10 13:35:15;;;;;;;5.97;3.25;;;;;;;11.22;41.44;99308.50;2618515;54;20046;-65
2022/04/10 13:37:45;;;;;;;3.85;2.28;;;;;;;11.56;41.05;99301.81;2618007;47;20050;-63
2022/04/10 13:40:16;;;;;;;4.07;2.20;;;;;;;11.85;40.02;99295.63;2617981;54;20062;-65
2022/04/10 13:42:46;;;;;;;3.67;2.35;;;;;;;11.97;39.34;99295.94;2618267;54;20026;-64
2022/04/10 13:45:19;;;;;;;2.50;1.83;;;;;;;11.97;38.13;99299.41;2617938;47;20055;-64
2022/04/10 13:47:49;;;;;;;29.15;21.05;;;;;;;12.05;38.70;99283.38;2618130;54;20034;-65
2022/04/10 13:50:18;;;;;;;4.28;2.63;;;;;;;12.07;38.74;99281.34;2618481;54;20037;-65
2022/04/10 13:52:48;;;;;;;5.05;2.38;;;;;;;12.00;38.82;99282.28;2618371;54;20038;-65
2022/04/10 13:55:18;;;;;;;2.42;1.75;;;;;;;11.99;38.73;99291.25;2618350;54;20038;-64
2022/04/10 13:57:47;;;;;;;6.07;2.20;;;;;;;12.03;39.00;99277.44;2617937;54;20056;-65
2022/04/10 14:00:20;;;;;;;3.78;2.10;;;;;;;12.03;38.32;99290.69;2618438;54;20031;-63
2022/04/10 14:02:50;;;;;;;6.10;2.25;;;;;;;11.77;37.28;99287.75;2618249;54;20035;-65
2022/04/10 14:05:20;;;;;;;3.75;2.03;;;;;;;11.64;37.15;99280.50;2618218;54;20045;-65
2022/04/10 14:07:50;;;;;;;5.00;2.10;;;;;;;11.75;37.36;99282.63;2617863;54;20033;-64
2022/04/10 14:10:19;;;;;;;3.55;2.13;;;;;;;11.79;36.74;99277.78;2618391;54;20027;-65
2022/04/10 14:12:49;;;;;;;3.13;1.73;;;;;;;11.99;37.44;99270.06;2618085;47;20030;-65
2022/04/10 14:15:21;;;;;;;4.05;1.98;;;;;;;12.21;37.35;99266.41;2618584;54;20049;-64
2022/04/10 14:17:56;;;;;;;6.50;2.47;;;;;;;12.09;36.81;99276.69;2618031;54;20026;-64
2022/04/10 14:20:26;;;;;;;4.60;1.88;;;;;;;12.03;36.78;99277.44;2618239;54;20026;-64
2022/04/10 14:22:56;;;;;;;3.25;1.80;;;;;;;12.06;37.16;99266.47;2618491;54;20030;-64
2022/04/10 14:25:26;;;;;;;5.10;2.28;;;;;;;11.87;36.59;99267.09;2617922;54;20080;-64
2022/04/10 14:27:55;;;;;;;4.28;2.20;;;;;;;11.75;36.84;99261.44;2617815;54;20030;-65
2022/04/10 14:30:30;;;;;;;5.10;2.70;;;;;;;11.74;37.14;99261.66;2618146;54;20050;-65
2022/04/10 14:33:03;;;;;;;4.57;2.30;;;;;;;11.75;38.11;99255.34;2618857;39;20473;-64
2022/04/10 14:35:32;;;;;;;4.85;2.60;;;;;;;11.78;38.32;99257.59;2618470;54;20023;-64
2022/04/10 14:38:02;;;;;;;6.10;2.00;;;;;;;11.77;38.49;99253.31;2617373;54;20030;-64
2022/04/10 14:40:32;;;;;;;4.95;2.55;;;;;;;11.73;39.46;99266.13;2618427;54;20547;-64
2022/04/10 14:43:04;;;;;;;4.32;2.00;;;;;;;11.56;39.41;99257.59;2618303;54;20038;-63
2022/04/10 14:45:36;;;;;;;5.03;2.50;;;;;;;11.65;39.81;99248.53;2618384;54;20038;-64
2022/04/10 14:48:07;;;;;;;9.60;3.35;;;;;;;11.76;40.26;99259.66;2617888;54;20555;-65
2022/04/10 14:50:38;;;;;;;4.10;1.85;;;;;;;11.85;39.49;99255.88;2618371;54;20026;-64
2022/04/10 14:53:09;;;;;;;4.00;2.25;;;;;;;11.88;39.66;99256.31;2618203;54;20042;-64
2022/04/10 14:55:39;;;;;;;5.57;2.60;;;;;;;11.83;39.32;99250.75;2618222;54;20166;-65
2022/04/10 14:58:12;;;;;;;4.32;2.33;;;;;;;11.83;40.02;99248.09;2617780;47;20070;-64
2022/04/10 15:00:45;;;;;;;3.30;2.03;;;;;;;11.90;40.04;99251.66;2618733;39;20439;-64
2022/04/10 15:03:18;;;;;;;;;;;;;;;11.82;39.94;99256.22;2618340;54;20050;-63
2022/04/10 15:05:47;;;;;;;4.63;2.30;;;;;;;11.69;39.52;99251.63;2617731;54;20463;-63
2022/04/10 15:08:18;;;;;;;3.53;2.22;;;;;;;11.63;39.46;99255.84;2618179;54;20034;-64
2022/04/10 15:10:47;;;;;;;4.00;2.17;;;;;;;11.67;39.95;99245.69;2618349;54;20558;-64
2022/04/10 15:13:17;;;;;;;4.65;2.30;;;;;;;11.78;39.46;99249.66;2618171;49;20022;-64
2022/04/10 15:15:51;;;;;;;6.18;2.58;;;;;;;11.87;39.36;99248.56;2620760;54;20042;-65
2022/04/10 15:18:22;;;;;;;3.83;2.65;;;;;;;11.99;39.62;99246.22;2620832;54;20039;-65
2022/04/10 15:20:52;;;;;;;7.57;2.28;;;;;;;11.93;39.52;99244.34;2620117;54;20039;-65
2022/04/10 15:23:22;;;;;;;4.13;2.70;;;;;;;11.86;39.92;99241.63;2619640;39;20435;-63
2022/04/10 15:25:52;;;;;;;4.53;2.58;;;;;;;11.75;40.42;99245.56;2621220;54;20070;-65
2022/04/10 15:28:21;;;;;;;6.80;3.03;;;;;;;11.60;40.55;99242.97;2621900;54;20030;-64
2022/04/10 15:30:54;;;;;;;6.22;2.88;;;;;;;11.49;40.54;99247.94;2621124;54;20042;-65
2022/04/10 15:33:24;;;;;;;5.00;2.05;;;;;;;11.31;41.03;99246.53;2621369;54;20030;-64
2022/04/10 15:35:54;;;;;;;5.68;2.63;;;;;;;11.29;41.19;99256.47;2622235;54;20027;-65
2022/04/10 15:38:24;;;;;;;4.85;2.40;;;;;;;11.23;40.62;99248.47;2621642;54;20026;-63
2022/04/10 15:40:54;;;;;;;4.72;2.70;;;;;;;11.19;41.23;99249.88;2622582;54;20037;-63
2022/04/10 15:43:27;;;;;;;9.05;3.35;;;;;;;11.30;41.45;99250.16;2622951;46;20561;-64
2022/04/10 15:45:59;;;;;;;4.45;2.38;;;;;;;11.47;40.16;99239.34;2623224;54;20038;-64
2022/04/10 15:48:29;;;;;;;3.90;1.92;;;;;;;11.62;39.86;99250.72;2622382;54;20066;-64
2022/04/10 15:50:58;;;;;;;3.47;2.40;;;;;;;11.92;39.91;99247.97;2622797;39;20419;-63
2022/04/10 15:53:29;;;;;;;6.20;2.83;;;;;;;12.17;39.16;99241.28;2622082;54;20044;-64
2022/04/10 15:55:59;;;;;;;4.70;2.15;;;;;;;12.38;39.19;99243.88;2621192;46;20022;-64
2022/04/10 15:58:28;;;;;;;5.05;2.10;;;;;;;12.46;38.67;99244.75;2621404;54;20027;-64
2022/04/10 16:01:01;;;;;;;3.38;2.25;;;;;;;12.43;39.06;99240.66;2621801;39;20446;-65
2022/04/10 16:03:31;;;;;;;6.77;2.43;;;;;;;12.79;38.24;99235.16;2621213;54;20558;-64
2022/04/10 16:06:01;;;;;;;4.07;1.90;;;;;;;12.89;37.93;99240.09;2621695;54;20026;-64
2022/04/10 16:08:31;;;;;;;7.15;2.20;;;;;;;12.78;37.80;99236.19;2621257;54;20039;-65
2022/04/10 16:11:00;;;;;;;5.05;2.38;;;;;;;12.53;38.31;99235.84;2620846;47;20030;-65
2022/04/10 16:13:31;;;;;;;9.60;5.95;;;;;;;12.44;37.35;99234.31;2621544;54;20038;-65
2022/04/10 16:16:03;;;;;;;12.20;6.30;;;;;;;12.30;37.96;99236.06;2624653;54;20058;-64